createdAt,value
2018-02-09T00:00:59.518Z,0
2018-02-09T00:02:09.649Z,0
2018-02-09T00:03:19.774Z,0
2018-02-09T00:04:30.044Z,0
2018-02-09T00:05:40.428Z,0
2018-02-09T00:06:50.566Z,0
2018-02-09T00:08:00.689Z,0
2018-02-09T00:09:10.900Z,0
2018-02-09T00:10:22.314Z,0
2018-02-09T00:11:32.465Z,0
2018-02-09T00:12:43.214Z,0
2018-02-09T00:13:53.383Z,0
2018-02-09T00:15:04.623Z,0
2018-02-09T00:16:14.723Z,0
2018-02-09T00:17:24.920Z,0
2018-02-09T00:18:34.582Z,0
2018-02-09T00:19:45.704Z,0
2018-02-09T00:20:55.823Z,0
2018-02-09T00:22:05.666Z,0
2018-02-09T00:23:15.486Z,0
2018-02-09T00:24:25.681Z,0
2018-02-09T00:25:38.012Z,0
2018-02-09T00:26:48.121Z,0
2018-02-09T00:27:58.013Z,0
2018-02-09T00:29:07.875Z,0
2018-02-09T00:30:18.000Z,0
2018-02-09T00:31:28.180Z,0
2018-02-09T00:32:38.320Z,0
2018-02-09T00:33:48.511Z,0
2018-02-09T00:34:58.412Z,0
2018-02-09T00:36:08.559Z,0
2018-02-09T00:37:18.712Z,0
2018-02-09T00:38:28.883Z,0
2018-02-09T00:39:39.048Z,0
2018-02-09T00:40:48.939Z,0
2018-02-09T00:41:59.083Z,0
2018-02-09T00:43:08.986Z,0
2018-02-09T00:44:18.904Z,0
2018-02-09T00:45:29.057Z,0
2018-02-09T00:46:39.184Z,0
2018-02-09T00:47:49.308Z,0
2018-02-09T00:48:59.426Z,0
2018-02-09T00:50:09.560Z,0
2018-02-09T00:51:19.721Z,0
2018-02-09T00:52:29.814Z,0
2018-02-09T00:53:39.961Z,0
2018-02-09T00:54:49.833Z,0
2018-02-09T00:55:59.975Z,0
2018-02-09T00:57:10.103Z,0
2018-02-09T00:58:20.488Z,0
2018-02-09T00:59:31.654Z,0
2018-02-09T01:00:41.766Z,0
2018-02-09T01:01:51.969Z,0
2018-02-09T01:03:03.099Z,0
2018-02-09T01:04:13.348Z,0
2018-02-09T01:05:23.445Z,0
2018-02-09T01:06:33.561Z,0
2018-02-09T01:07:43.428Z,0
2018-02-09T01:08:53.715Z,0
2018-02-09T01:10:03.683Z,0
2018-02-09T01:11:13.826Z,0
2018-02-09T01:12:23.931Z,0
2018-02-09T01:13:34.080Z,0
2018-02-09T01:14:44.201Z,0
2018-02-09T01:15:54.323Z,0
2018-02-09T01:17:04.456Z,0
2018-02-09T01:18:14.558Z,0
2018-02-09T01:19:24.679Z,0
2018-02-09T01:20:34.889Z,0
2018-02-09T01:21:45.153Z,0
2018-02-09T01:22:55.273Z,0
2018-02-09T01:24:05.385Z,0
2018-02-09T01:25:15.267Z,0
2018-02-09T01:26:25.471Z,0
2018-02-09T01:27:35.616Z,0
2018-02-09T01:28:45.729Z,0
2018-02-09T01:29:55.867Z,0
2018-02-09T01:31:06.076Z,0
2018-02-09T01:32:16.300Z,0
2018-02-09T01:33:26.288Z,0
2018-02-09T01:34:36.164Z,0
2018-02-09T01:35:46.326Z,0
2018-02-09T01:36:56.445Z,0
2018-02-09T01:38:06.542Z,0
2018-02-09T01:39:16.647Z,0
2018-02-09T01:40:26.790Z,0
2018-02-09T01:41:36.695Z,0
2018-02-09T01:42:46.823Z,0
2018-02-09T01:43:56.938Z,0
2018-02-09T01:45:06.716Z,0
2018-02-09T01:46:16.880Z,0
2018-02-09T01:47:27.105Z,0
2018-02-09T01:48:37.356Z,0
2018-02-09T01:49:47.459Z,0
2018-02-09T01:50:57.587Z,0
2018-02-09T01:52:07.421Z,0
2018-02-09T01:53:17.271Z,0
2018-02-09T01:54:27.550Z,0
2018-02-09T01:55:38.717Z,0
2018-02-09T01:56:48.921Z,0
2018-02-09T01:57:59.044Z,0
2018-02-09T01:59:09.391Z,0
2018-02-09T02:00:19.687Z,0
2018-02-09T02:01:29.850Z,0
2018-02-09T02:02:40.067Z,0
2018-02-09T02:03:49.929Z,0
2018-02-09T02:05:00.034Z,0
2018-02-09T02:06:10.008Z,0
2018-02-09T02:07:20.116Z,0
2018-02-09T02:08:30.230Z,0
2018-02-09T02:09:40.407Z,0
2018-02-09T02:10:50.299Z,0
2018-02-09T02:12:00.516Z,0
2018-02-09T02:13:10.647Z,0
2018-02-09T02:14:20.775Z,0
2018-02-09T02:15:30.717Z,0
2018-02-09T02:16:40.778Z,0
2018-02-09T02:17:50.913Z,0
2018-02-09T02:19:00.805Z,0
2018-02-09T02:20:10.923Z,0
2018-02-09T02:21:21.036Z,0
2018-02-09T02:22:31.278Z,0
2018-02-09T02:23:41.171Z,0
2018-02-09T02:24:51.291Z,0
2018-02-09T02:26:01.517Z,0
2018-02-09T02:27:11.762Z,0
2018-02-09T02:28:22.008Z,0
2018-02-09T02:29:32.235Z,0
2018-02-09T02:30:41.752Z,0
2018-02-09T02:31:51.857Z,0
2018-02-09T02:33:02.077Z,0
2018-02-09T02:34:12.222Z,0
2018-02-09T02:35:22.353Z,0
2018-02-09T02:36:32.262Z,0
2018-02-09T02:37:42.362Z,0
2018-02-09T02:38:52.323Z,0
2018-02-09T02:40:02.243Z,0
2018-02-09T02:41:12.358Z,0
2018-02-09T02:42:22.508Z,0
2018-02-09T02:43:32.621Z,0
2018-02-09T02:44:42.748Z,0
2018-02-09T02:45:52.863Z,0
2018-02-09T02:47:03.002Z,0
2018-02-09T02:48:13.279Z,0
2018-02-09T02:49:23.507Z,0
2018-02-09T02:50:33.681Z,0
2018-02-09T02:51:43.794Z,0
2018-02-09T02:52:53.920Z,0
2018-02-09T02:54:04.083Z,0
2018-02-09T02:55:14.243Z,0
2018-02-09T02:56:24.414Z,0
2018-02-09T02:57:34.274Z,0
2018-02-09T02:58:45.370Z,0
2018-02-09T02:59:55.542Z,0
2018-02-09T03:01:05.637Z,0
2018-02-09T03:02:15.782Z,0
2018-02-09T03:03:25.913Z,0
2018-02-09T03:04:36.030Z,0
2018-02-09T03:05:46.147Z,0
2018-02-09T03:06:56.331Z,0
2018-02-09T03:08:06.651Z,0
2018-02-09T03:09:16.803Z,0
2018-02-09T03:10:27.040Z,0
2018-02-09T03:11:37.230Z,0
2018-02-09T03:12:47.434Z,0
2018-02-09T03:13:57.946Z,0
2018-02-09T03:15:08.045Z,0
2018-02-09T03:16:18.260Z,0
2018-02-09T03:17:28.493Z,0
2018-02-09T03:18:38.619Z,0
2018-02-09T03:19:48.512Z,0
2018-02-09T03:20:58.647Z,0
2018-02-09T03:22:08.835Z,0
2018-02-09T03:23:18.700Z,0
2018-02-09T03:24:28.797Z,0
2018-02-09T03:25:38.964Z,0
2018-02-09T03:26:49.101Z,0
2018-02-09T03:27:59.290Z,0
2018-02-09T03:29:09.423Z,0
2018-02-09T03:30:19.552Z,0
2018-02-09T03:31:29.676Z,0
2018-02-09T03:32:39.768Z,0
2018-02-09T03:33:49.896Z,0
2018-02-09T03:35:00.020Z,0
2018-02-09T03:36:10.136Z,0
2018-02-09T03:37:22.302Z,0
2018-02-09T03:38:32.146Z,0
2018-02-09T03:39:42.279Z,0
2018-02-09T03:40:52.398Z,0
2018-02-09T03:42:04.366Z,0
2018-02-09T03:43:14.462Z,0
2018-02-09T03:44:24.573Z,0
2018-02-09T03:45:34.681Z,0
2018-02-09T03:46:44.896Z,0
2018-02-09T03:47:55.077Z,0
2018-02-09T03:49:05.341Z,0
2018-02-09T03:50:15.571Z,0
2018-02-09T03:51:25.704Z,0
2018-02-09T03:52:35.994Z,0
2018-02-09T03:53:46.114Z,0
2018-02-09T03:54:56.523Z,0
2018-02-09T03:56:06.674Z,0
2018-02-09T03:57:16.830Z,0
2018-02-09T03:58:27.124Z,0
2018-02-09T03:59:37.289Z,0
2018-02-09T04:00:47.401Z,0
2018-02-09T04:01:57.489Z,0
2018-02-09T04:03:07.594Z,0
2018-02-09T04:04:17.462Z,0
2018-02-09T04:05:27.576Z,0
2018-02-09T04:06:37.689Z,0
2018-02-09T04:07:48.203Z,0
2018-02-09T04:08:58.309Z,0
2018-02-09T04:10:08.424Z,0
2018-02-09T04:11:18.319Z,0
2018-02-09T04:12:28.408Z,0
2018-02-09T04:13:38.549Z,0
2018-02-09T04:14:48.939Z,0
2018-02-09T04:15:59.036Z,0
2018-02-09T04:17:09.179Z,0
2018-02-09T04:18:19.418Z,0
2018-02-09T04:19:29.380Z,0
2018-02-09T04:20:39.472Z,0
2018-02-09T04:21:49.645Z,0
2018-02-09T04:22:59.747Z,0
2018-02-09T04:24:10.111Z,0
2018-02-09T04:25:20.345Z,0
2018-02-09T04:26:30.471Z,0
2018-02-09T04:27:40.581Z,0
2018-02-09T04:28:50.676Z,0
2018-02-09T04:30:00.789Z,0
2018-02-09T04:31:10.915Z,0
2018-02-09T04:32:21.145Z,0
2018-02-09T04:33:31.290Z,0
2018-02-09T04:34:41.395Z,0
2018-02-09T04:35:51.503Z,0
2018-02-09T04:37:01.344Z,0
2018-02-09T04:38:11.452Z,0
2018-02-09T04:39:21.590Z,0
2018-02-09T04:40:31.435Z,0
2018-02-09T04:41:42.465Z,0
2018-02-09T04:42:52.702Z,0
2018-02-09T04:44:02.838Z,0
2018-02-09T04:45:13.024Z,0
2018-02-09T04:46:23.152Z,0
2018-02-09T04:47:33.266Z,0
2018-02-09T04:48:43.388Z,0
2018-02-09T04:49:53.529Z,0
2018-02-09T04:51:03.676Z,0
2018-02-09T04:52:13.887Z,0
2018-02-09T04:53:23.735Z,0
2018-02-09T04:54:34.051Z,0
2018-02-09T04:55:44.163Z,0
2018-02-09T04:56:53.950Z,0
2018-02-09T04:58:04.045Z,0
2018-02-09T04:59:14.204Z,0
2018-02-09T05:00:24.326Z,0
2018-02-09T05:01:34.436Z,0
2018-02-09T05:02:43.951Z,0
2018-02-09T05:03:53.686Z,0
2018-02-09T05:05:03.977Z,0
2018-02-09T05:06:14.254Z,0
2018-02-09T05:07:24.512Z,0
2018-02-09T05:08:35.602Z,0
2018-02-09T05:09:45.765Z,0
2018-02-09T05:10:56.099Z,0
2018-02-09T05:12:06.002Z,0
2018-02-09T05:13:16.103Z,0
2018-02-09T05:14:26.229Z,0
2018-02-09T05:15:36.409Z,0
2018-02-09T05:16:46.287Z,0
2018-02-09T05:17:56.445Z,0
2018-02-09T05:19:06.669Z,0
2018-02-09T05:20:16.832Z,0
2018-02-09T05:21:27.053Z,0
2018-02-09T05:22:37.215Z,0
2018-02-09T05:23:47.420Z,0
2018-02-09T05:24:57.344Z,0
2018-02-09T05:26:07.474Z,0
2018-02-09T05:27:17.163Z,0
2018-02-09T05:28:27.379Z,0
2018-02-09T05:29:37.530Z,0
2018-02-09T05:30:47.631Z,0
2018-02-09T05:31:58.230Z,0
2018-02-09T05:33:09.346Z,0
2018-02-09T05:34:19.467Z,0
2018-02-09T05:35:29.669Z,0
2018-02-09T05:36:39.930Z,0
2018-02-09T05:37:50.254Z,0
2018-02-09T05:39:00.375Z,0
2018-02-09T05:40:10.478Z,0
2018-02-09T05:41:20.914Z,0
2018-02-09T05:42:30.774Z,0
2018-02-09T05:43:40.888Z,0
2018-02-09T05:44:50.992Z,0
2018-02-09T05:46:01.234Z,0
2018-02-09T05:47:11.351Z,0
2018-02-09T05:48:21.583Z,0
2018-02-09T05:49:31.573Z,0
2018-02-09T05:50:41.680Z,0
2018-02-09T05:51:51.825Z,0
2018-02-09T05:53:01.744Z,0
2018-02-09T05:54:11.843Z,0
2018-02-09T05:55:22.926Z,0
2018-02-09T05:56:33.141Z,0
2018-02-09T05:57:43.319Z,0
2018-02-09T05:58:53.192Z,0
2018-02-09T06:00:03.400Z,0
2018-02-09T06:01:13.293Z,0
2018-02-09T06:02:23.381Z,0
2018-02-09T06:03:33.510Z,0
2018-02-09T06:04:43.697Z,0
2018-02-09T06:05:53.818Z,0
2018-02-09T06:07:03.412Z,0
2018-02-09T06:08:13.537Z,0
2018-02-09T06:09:23.677Z,0
2018-02-09T06:10:33.878Z,0
2018-02-09T06:11:44.011Z,0
2018-02-09T06:12:54.126Z,0
2018-02-09T06:14:04.234Z,0
2018-02-09T06:15:14.437Z,0
2018-02-09T06:16:24.651Z,0
2018-02-09T06:17:34.499Z,0
2018-02-09T06:18:45.584Z,0
2018-02-09T06:19:55.699Z,0
2018-02-09T06:21:05.942Z,0
2018-02-09T06:22:15.831Z,0
2018-02-09T06:23:25.990Z,0
2018-02-09T06:24:36.172Z,0
2018-02-09T06:25:46.363Z,0
2018-02-09T06:26:56.500Z,0
2018-02-09T06:28:06.625Z,0
2018-02-09T06:29:16.726Z,0
2018-02-09T06:30:26.832Z,0
2018-02-09T06:31:36.970Z,0
2018-02-09T06:32:46.846Z,0
2018-02-09T06:33:57.017Z,5
2018-02-09T06:35:07.146Z,5
2018-02-09T06:36:17.292Z,5
2018-02-09T06:37:27.567Z,5
2018-02-09T06:38:37.754Z,5
2018-02-09T06:39:50.983Z,5
2018-02-09T06:41:00.875Z,5
2018-02-09T06:42:11.002Z,10
2018-02-09T06:43:21.165Z,10
2018-02-09T06:44:31.359Z,10
2018-02-09T06:45:41.462Z,10
2018-02-09T06:46:52.653Z,15
2018-02-09T06:48:02.752Z,15
2018-02-09T06:49:12.601Z,15
2018-02-09T06:50:23.338Z,15
2018-02-09T06:51:34.901Z,20
2018-02-09T06:52:45.723Z,20
2018-02-09T06:53:55.847Z,20
2018-02-09T06:55:05.947Z,20
2018-02-09T06:56:16.056Z,25
2018-02-09T06:57:26.256Z,25
2018-02-09T06:58:36.191Z,30
2018-02-09T06:59:46.069Z,30
2018-02-09T07:00:56.178Z,30
2018-02-09T07:02:06.312Z,35
2018-02-09T07:03:16.477Z,35
2018-02-09T07:04:26.608Z,35
2018-02-09T07:05:36.829Z,40
2018-02-09T07:06:46.320Z,40
2018-02-09T07:07:56.430Z,45
2018-02-09T07:09:06.620Z,45
2018-02-09T07:10:16.927Z,45
2018-02-09T07:11:27.465Z,45
2018-02-09T07:12:37.586Z,45
2018-02-09T07:13:48.054Z,50
2018-02-09T07:14:59.356Z,55
2018-02-09T07:16:09.908Z,55
2018-02-09T07:17:20.019Z,60
2018-02-09T07:18:30.302Z,60
2018-02-09T07:19:40.457Z,65
2018-02-09T07:20:50.793Z,65
2018-02-09T07:22:00.961Z,70
2018-02-09T07:23:11.179Z,75
2018-02-09T07:24:21.031Z,75
2018-02-09T07:25:31.157Z,75
2018-02-09T07:26:41.268Z,80
2018-02-09T07:27:51.034Z,80
2018-02-09T07:29:01.203Z,85
2018-02-09T07:30:11.369Z,90
2018-02-09T07:31:21.238Z,90
2018-02-09T07:32:32.067Z,95
2018-02-09T07:33:42.192Z,100
2018-02-09T07:34:52.327Z,105
2018-02-09T07:36:02.639Z,105
2018-02-09T07:37:12.808Z,110
2018-02-09T07:38:23.059Z,115
2018-02-09T07:39:33.000Z,120
2018-02-09T07:40:43.339Z,120
2018-02-09T07:41:53.445Z,135
2018-02-09T07:43:03.560Z,130
2018-02-09T07:44:13.458Z,135
2018-02-09T07:45:23.577Z,135
2018-02-09T07:46:33.708Z,140
2018-02-09T07:47:43.837Z,145
2018-02-09T07:48:54.048Z,150
2018-02-09T07:50:04.296Z,155
2018-02-09T07:51:15.449Z,165
2018-02-09T07:52:25.654Z,170
2018-02-09T07:53:36.612Z,175
2018-02-09T07:54:46.729Z,180
2018-02-09T07:55:57.721Z,185
2018-02-09T07:57:08.939Z,185
2018-02-09T07:58:18.848Z,190
2018-02-09T07:59:29.433Z,195
2018-02-09T08:00:39.838Z,205
2018-02-09T08:01:50.820Z,205
2018-02-09T08:03:01.430Z,220
2018-02-09T08:04:12.096Z,225
2018-02-09T08:05:22.628Z,235
2018-02-09T08:06:33.202Z,240
2018-02-09T08:07:43.746Z,245
2018-02-09T08:08:55.518Z,250
2018-02-09T08:10:06.231Z,255
2018-02-09T08:11:18.648Z,265
2018-02-09T08:12:34.971Z,265
2018-02-09T08:13:45.294Z,270
2018-02-09T08:14:56.021Z,280
2018-02-09T08:16:06.870Z,285
2018-02-09T08:17:17.847Z,290
2018-02-09T08:18:29.765Z,295
2018-02-09T08:19:39.878Z,305
2018-02-09T08:20:51.549Z,315
2018-02-09T08:22:02.976Z,320
2018-02-09T08:23:13.330Z,325
2018-02-09T08:24:23.619Z,335
2018-02-09T08:25:34.008Z,340
2018-02-09T08:26:44.700Z,350
2018-02-09T08:27:55.512Z,360
2018-02-09T08:29:06.335Z,365
2018-02-09T08:30:17.847Z,380
2018-02-09T08:31:28.182Z,390
2018-02-09T08:32:40.011Z,395
2018-02-09T08:33:51.564Z,400
2018-02-09T08:35:02.228Z,395
2018-02-09T08:36:13.653Z,400
2018-02-09T08:37:25.761Z,405
2018-02-09T08:38:56.778Z,420
2018-02-09T08:40:09.843Z,450
2018-02-09T08:42:18.593Z,450
2018-02-09T08:43:45.273Z,455
2018-02-09T08:46:28.940Z,485
2018-02-09T08:47:42.419Z,495
2018-02-09T08:48:54.418Z,505
2018-02-09T08:50:07.277Z,510
2018-02-09T08:51:17.938Z,510
2018-02-09T08:52:28.281Z,515
2018-02-09T08:53:39.906Z,535
2018-02-09T08:54:51.769Z,540
2018-02-09T08:56:04.235Z,555
2018-02-09T08:57:16.601Z,555
2018-02-09T08:58:27.325Z,555
2018-02-09T08:59:37.990Z,560
2018-02-09T09:00:48.361Z,560
2018-02-09T09:01:59.163Z,585
2018-02-09T09:03:09.524Z,590
2018-02-09T09:04:19.859Z,605
2018-02-09T09:05:30.074Z,595
2018-02-09T09:06:41.443Z,625
2018-02-09T09:07:52.007Z,600
2018-02-09T09:09:03.143Z,630
2018-02-09T09:10:13.543Z,635
2018-02-09T09:11:24.346Z,655
2018-02-09T09:12:34.332Z,635
2018-02-09T09:13:44.477Z,645
2018-02-09T09:14:54.678Z,665
2018-02-09T09:16:05.246Z,680
2018-02-09T09:17:15.826Z,705
2018-02-09T09:18:26.433Z,695
2018-02-09T09:19:37.192Z,720
2018-02-09T09:20:47.819Z,695
2018-02-09T09:21:58.029Z,730
2018-02-09T09:23:08.593Z,730
2018-02-09T09:24:19.658Z,720
2018-02-09T09:25:30.176Z,730
2018-02-09T09:26:40.352Z,745
2018-02-09T09:27:51.483Z,765
2018-02-09T09:29:01.858Z,780
2018-02-09T09:30:11.761Z,770
2018-02-09T09:31:21.899Z,775
2018-02-09T09:32:32.539Z,805
2018-02-09T09:33:42.964Z,810
2018-02-09T09:34:53.391Z,840
2018-02-09T09:36:03.518Z,860
2018-02-09T09:37:13.860Z,885
2018-02-09T09:38:24.006Z,890
2018-02-09T09:39:34.225Z,900
2018-02-09T09:40:44.593Z,880
2018-02-09T09:41:54.715Z,885
2018-02-09T09:43:05.488Z,910
2018-02-09T09:44:15.326Z,900
2018-02-09T09:45:25.925Z,895
2018-02-09T09:46:36.113Z,905
2018-02-09T09:47:46.275Z,920
2018-02-09T09:48:56.413Z,945
2018-02-09T09:50:06.548Z,935
2018-02-09T09:51:16.674Z,950
2018-02-09T09:52:26.842Z,975
2018-02-09T09:53:37.101Z,980
2018-02-09T09:54:47.302Z,1000
2018-02-09T09:55:57.523Z,1020
2018-02-09T09:57:07.693Z,1020
2018-02-09T09:58:17.922Z,1050
2018-02-09T09:59:28.116Z,1075
2018-02-09T10:00:38.355Z,1045
2018-02-09T10:01:48.504Z,1020
2018-02-09T10:02:58.634Z,990
2018-02-09T10:04:08.785Z,1025
2018-02-09T10:05:18.924Z,1050
2018-02-09T10:06:28.800Z,1075
2018-02-09T10:07:39.038Z,1090
2018-02-09T10:08:49.207Z,1090
2018-02-09T10:09:59.121Z,1100
2018-02-09T10:11:09.252Z,1090
2018-02-09T10:12:19.392Z,1130
2018-02-09T10:13:29.538Z,1115
2018-02-09T10:14:39.673Z,1150
2018-02-09T10:15:49.804Z,1090
2018-02-09T10:16:59.689Z,1125
2018-02-09T10:18:09.901Z,1140
2018-02-09T10:19:20.066Z,1095
2018-02-09T10:20:30.240Z,1085
2018-02-09T10:21:40.427Z,1100
2018-02-09T10:22:50.628Z,1075
2018-02-09T10:24:00.834Z,1075
2018-02-09T10:25:10.722Z,1110
2018-02-09T10:26:20.984Z,1145
2018-02-09T10:27:36.189Z,1090
2018-02-09T10:28:46.339Z,1075
2018-02-09T10:29:56.468Z,1095
2018-02-09T10:31:06.357Z,1080
2018-02-09T10:32:17.409Z,1090
2018-02-09T10:33:27.571Z,1120
2018-02-09T10:37:11.576Z,1180
2018-02-09T10:42:11.831Z,1110
2018-02-09T10:43:21.998Z,1145
2018-02-09T10:44:32.256Z,1255
2018-02-09T10:45:42.532Z,1265
2018-02-09T10:46:52.790Z,1315
2018-02-09T10:48:02.989Z,1195
2018-02-09T10:49:13.282Z,1235
2018-02-09T10:50:23.413Z,1190
2018-02-09T10:51:33.590Z,1205
2018-02-09T10:52:43.793Z,1225
2018-02-09T10:53:53.741Z,1180
2018-02-09T10:55:03.878Z,1240
2018-02-09T10:56:14.011Z,1235
2018-02-09T10:57:24.148Z,1245
2018-02-09T10:58:34.384Z,1215
2018-02-09T10:59:44.600Z,1355
2018-02-09T11:00:54.740Z,1330
2018-02-09T11:02:05.595Z,1205
2018-02-09T11:03:15.835Z,1000
2018-02-09T11:04:26.024Z,1085
2018-02-09T11:05:36.250Z,1220
2018-02-09T11:06:46.436Z,1225
2018-02-09T11:07:56.765Z,1260
2018-02-09T11:09:06.396Z,1300
2018-02-09T11:10:16.304Z,1315
2018-02-09T11:11:26.314Z,1320
2018-02-09T11:12:36.563Z,1445
2018-02-09T11:13:46.863Z,1340
2018-02-09T11:14:57.039Z,1340
2018-02-09T11:16:07.314Z,1160
2018-02-09T11:17:17.625Z,1250
2018-02-09T11:18:27.777Z,1165
2018-02-09T11:19:37.965Z,1200
2018-02-09T11:20:48.142Z,1165
2018-02-09T11:21:58.278Z,1185
2018-02-09T11:23:08.452Z,1185
2018-02-09T11:24:18.594Z,1245
2018-02-09T11:25:28.726Z,1125
2018-02-09T11:26:38.863Z,1130
2018-02-09T11:27:48.995Z,1270
2018-02-09T11:28:59.176Z,1285
2018-02-09T11:30:09.310Z,1265
2018-02-09T11:31:19.469Z,1250
2018-02-09T11:32:29.582Z,1125
2018-02-09T11:33:40.717Z,1225
2018-02-09T11:34:50.930Z,1370
2018-02-09T11:36:01.164Z,1225
2018-02-09T11:37:11.329Z,1185
2018-02-09T11:38:21.574Z,1180
2018-02-09T11:39:31.728Z,1390
2018-02-09T11:40:41.960Z,1115
2018-02-09T11:41:53.242Z,1270
2018-02-09T11:43:03.465Z,1225
2018-02-09T11:44:13.377Z,1280
2018-02-09T11:45:23.502Z,1245
2018-02-09T11:46:33.693Z,1260
2018-02-09T11:47:43.836Z,1320
2018-02-09T11:48:53.745Z,1225
2018-02-09T11:50:03.888Z,1270
2018-02-09T11:51:14.020Z,680
2018-02-09T11:52:24.180Z,1190
2018-02-09T11:53:34.429Z,1180
2018-02-09T11:54:44.411Z,1005
2018-02-09T11:55:54.264Z,1105
2018-02-09T11:57:04.498Z,1065
2018-02-09T11:58:14.677Z,1225
2018-02-09T11:59:24.935Z,1205
2018-02-09T12:00:36.125Z,1140
2018-02-09T12:01:46.413Z,1205
2018-02-09T12:02:56.615Z,1080
2018-02-09T12:04:06.500Z,1270
2018-02-09T12:05:16.633Z,1140
2018-02-09T12:06:26.515Z,1145
2018-02-09T12:07:36.653Z,1075
2018-02-09T12:08:46.792Z,1030
2018-02-09T12:09:56.933Z,1010
2018-02-09T12:11:07.077Z,980
2018-02-09T12:12:17.232Z,1085
2018-02-09T12:13:27.020Z,1160
2018-02-09T12:14:37.172Z,1030
2018-02-09T12:15:47.337Z,1085
2018-02-09T12:16:57.472Z,1090
2018-02-09T12:18:07.624Z,1205
2018-02-09T12:19:17.822Z,1170
2018-02-09T12:20:28.052Z,1155
2018-02-09T12:21:38.219Z,1165
2018-02-09T12:22:48.458Z,1260
2018-02-09T12:23:58.633Z,1235
2018-02-09T12:25:08.813Z,1215
2018-02-09T12:26:19.029Z,1270
2018-02-09T12:27:29.428Z,1315
2018-02-09T12:28:39.593Z,1320
2018-02-09T12:29:49.812Z,1230
2018-02-09T12:31:00.035Z,1200
2018-02-09T12:32:09.927Z,1195
2018-02-09T12:33:19.793Z,1200
2018-02-09T12:34:30.176Z,1150
2018-02-09T12:35:39.688Z,1110
2018-02-09T12:36:49.838Z,1070
2018-02-09T12:37:59.967Z,1065
2018-02-09T12:39:09.832Z,1075
2018-02-09T12:40:20.262Z,1140
2018-02-09T12:41:30.700Z,1050
2018-02-09T12:42:40.865Z,1125
2018-02-09T12:43:51.047Z,1100
2018-02-09T12:45:01.290Z,1025
2018-02-09T12:46:11.519Z,1000
2018-02-09T12:47:21.380Z,1055
2018-02-09T12:48:31.518Z,1070
2018-02-09T12:49:41.665Z,1055
2018-02-09T12:50:51.911Z,1085
2018-02-09T12:52:02.070Z,1155
2018-02-09T12:53:11.960Z,1190
2018-02-09T12:54:22.110Z,1150
2018-02-09T12:55:32.278Z,1115
2018-02-09T12:56:42.410Z,940
2018-02-09T12:57:52.645Z,1005
2018-02-09T12:59:02.904Z,1005
2018-02-09T13:00:13.219Z,1030
2018-02-09T13:01:23.414Z,1035
2018-02-09T13:02:34.645Z,1020
2018-02-09T13:03:44.869Z,925
2018-02-09T13:04:55.121Z,850
2018-02-09T13:06:05.325Z,910
2018-02-09T13:07:15.554Z,950
2018-02-09T13:08:25.846Z,855
2018-02-09T13:09:36.007Z,780
2018-02-09T13:10:46.163Z,785
2018-02-09T13:11:56.368Z,880
2018-02-09T13:13:06.536Z,915
2018-02-09T13:14:16.698Z,940
2018-02-09T13:15:26.896Z,985
2018-02-09T13:16:37.149Z,960
2018-02-09T13:17:47.290Z,795
2018-02-09T13:18:57.473Z,680
2018-02-09T13:20:07.622Z,645
2018-02-09T13:21:17.755Z,635
2018-02-09T13:22:27.636Z,625
2018-02-09T13:23:37.605Z,760
2018-02-09T13:24:47.849Z,775
2018-02-09T13:25:58.000Z,790
2018-02-09T13:27:08.148Z,790
2018-02-09T13:28:18.057Z,835
2018-02-09T13:29:28.221Z,865
2018-02-09T13:30:38.446Z,875
2018-02-09T13:31:48.609Z,880
2018-02-09T13:32:58.815Z,810
2018-02-09T13:34:08.951Z,780
2018-02-09T13:35:19.145Z,765
2018-02-09T13:36:29.274Z,730
2018-02-09T13:37:39.411Z,510
2018-02-09T13:38:49.602Z,525
2018-02-09T13:39:59.823Z,570
2018-02-09T13:41:09.999Z,610
2018-02-09T13:42:21.131Z,645
2018-02-09T13:43:31.383Z,640
2018-02-09T13:44:41.250Z,535
2018-02-09T13:45:51.168Z,610
2018-02-09T13:47:01.309Z,585
2018-02-09T13:48:11.482Z,580
2018-02-09T13:49:21.687Z,555
2018-02-09T13:50:31.578Z,570
2018-02-09T13:51:41.725Z,475
2018-02-09T13:52:51.913Z,440
2018-02-09T13:54:02.055Z,440
2018-02-09T13:55:11.727Z,420
2018-02-09T13:56:21.929Z,410
2018-02-09T13:57:32.109Z,380
2018-02-09T13:58:42.277Z,340
2018-02-09T13:59:52.190Z,285
2018-02-09T14:01:03.299Z,240
2018-02-09T14:02:13.195Z,225
2018-02-09T14:03:23.322Z,215
2018-02-09T14:04:33.476Z,255
2018-02-09T14:05:43.750Z,335
2018-02-09T14:06:53.995Z,410
2018-02-09T14:08:04.154Z,470
2018-02-09T14:09:14.020Z,500
2018-02-09T14:10:24.162Z,520
2018-02-09T14:11:34.324Z,530
2018-02-09T14:12:44.205Z,530
2018-02-09T14:13:54.365Z,505
2018-02-09T14:15:04.522Z,465
2018-02-09T14:16:14.774Z,420
2018-02-09T14:17:24.909Z,370
2018-02-09T14:18:35.071Z,330
2018-02-09T14:19:45.330Z,305
2018-02-09T14:20:55.624Z,285
2018-02-09T14:22:05.847Z,275
2018-02-09T14:23:16.090Z,285
2018-02-09T14:24:26.240Z,310
2018-02-09T14:25:36.116Z,325
2018-02-09T14:26:46.276Z,305
2018-02-09T14:27:56.520Z,275
2018-02-09T14:29:06.718Z,245
2018-02-09T14:30:16.865Z,235
2018-02-09T14:31:27.066Z,240
2018-02-09T14:32:37.225Z,255
2018-02-09T14:33:47.469Z,260
2018-02-09T14:34:57.634Z,270
2018-02-09T14:36:07.778Z,280
2018-02-09T14:37:17.745Z,290
2018-02-09T14:38:28.014Z,275
2018-02-09T14:39:37.893Z,245
2018-02-09T14:40:48.040Z,240
2018-02-09T14:41:58.421Z,225
2018-02-09T14:43:08.370Z,215
2018-02-09T14:44:18.602Z,195
2018-02-09T14:45:28.742Z,180
2018-02-09T14:46:38.975Z,175
2018-02-09T14:47:49.204Z,155
2018-02-09T14:48:59.397Z,140
2018-02-09T14:50:10.642Z,130
2018-02-09T14:51:20.993Z,125
2018-02-09T14:52:31.138Z,125
2018-02-09T14:53:41.278Z,135
2018-02-09T14:54:51.480Z,155
2018-02-09T14:56:01.439Z,170
2018-02-09T14:57:11.580Z,190
2018-02-09T14:58:21.770Z,220
2018-02-09T14:59:31.943Z,210
2018-02-09T15:00:41.564Z,195
2018-02-09T15:01:51.914Z,185
2018-02-09T15:03:01.798Z,155
2018-02-09T15:04:11.997Z,135
2018-02-09T15:05:22.319Z,120
2018-02-09T15:06:32.461Z,110
2018-02-09T15:07:42.643Z,105
2018-02-09T15:08:52.542Z,110
2018-02-09T15:10:02.697Z,120
2018-02-09T15:11:12.799Z,135
2018-02-09T15:12:22.959Z,130
2018-02-09T15:13:33.093Z,120
2018-02-09T15:14:43.256Z,125
2018-02-09T15:15:53.431Z,110
2018-02-09T15:17:04.570Z,105
2018-02-09T15:18:14.726Z,105
2018-02-09T15:19:24.855Z,100
2018-02-09T15:20:35.003Z,95
2018-02-09T15:21:45.152Z,90
2018-02-09T15:22:55.414Z,90
2018-02-09T15:24:05.633Z,80
2018-02-09T15:25:15.975Z,75
2018-02-09T15:26:26.140Z,70
2018-02-09T15:27:36.431Z,65
2018-02-09T15:28:46.440Z,60
2018-02-09T15:29:56.640Z,55
2018-02-09T15:31:06.877Z,50
2018-02-09T15:32:17.043Z,40
2018-02-09T15:33:27.218Z,35
2018-02-09T15:34:37.446Z,30
2018-02-09T15:35:47.566Z,25
2018-02-09T15:36:57.688Z,25
2018-02-09T15:38:07.838Z,20
2018-02-09T15:39:17.781Z,15
2018-02-09T15:40:27.981Z,15
2018-02-09T15:41:37.963Z,15
2018-02-09T15:42:48.227Z,15
2018-02-09T15:43:58.451Z,15
2018-02-09T15:45:08.771Z,10
2018-02-09T15:46:19.005Z,10
2018-02-09T15:47:29.171Z,10
2018-02-09T15:48:39.335Z,10
2018-02-09T15:49:49.576Z,10
2018-02-09T15:50:59.861Z,10
2018-02-09T15:52:10.082Z,10
2018-02-09T15:53:20.332Z,10
2018-02-09T15:54:30.489Z,5
2018-02-09T15:55:40.648Z,5
2018-02-09T15:56:50.838Z,5
2018-02-09T15:58:01.238Z,5
2018-02-09T15:59:11.394Z,5
2018-02-09T16:00:21.626Z,5
2018-02-09T16:01:31.548Z,5
2018-02-09T16:02:41.701Z,5
2018-02-09T16:03:51.867Z,5
2018-02-09T16:05:02.012Z,5
2018-02-09T16:06:12.205Z,5
2018-02-09T16:07:22.134Z,5
2018-02-09T16:08:32.287Z,5
2018-02-09T16:09:42.475Z,0
2018-02-09T16:10:52.332Z,0
2018-02-09T16:12:02.519Z,0
2018-02-09T16:13:12.292Z,0
2018-02-09T16:14:22.481Z,0
2018-02-09T16:15:32.692Z,0
2018-02-09T16:16:42.835Z,0
2018-02-09T16:17:52.980Z,0
2018-02-09T16:19:03.152Z,0
2018-02-09T16:20:13.330Z,0
2018-02-09T16:21:23.737Z,0
2018-02-09T16:22:33.661Z,0
2018-02-09T16:23:43.904Z,0
2018-02-09T16:24:54.205Z,0
2018-02-09T16:26:05.520Z,0
2018-02-09T16:27:15.410Z,0
2018-02-09T16:28:25.541Z,0
2018-02-09T16:29:35.712Z,0
2018-02-09T16:30:45.911Z,0
2018-02-09T16:31:56.252Z,0
2018-02-09T16:33:06.421Z,0
2018-02-09T16:34:17.509Z,0
2018-02-09T16:35:27.642Z,0
2018-02-09T16:36:37.799Z,0
2018-02-09T16:37:47.994Z,0
2018-02-09T16:38:58.143Z,0
2018-02-09T16:40:08.278Z,0
2018-02-09T16:41:18.450Z,0
2018-02-09T16:42:29.340Z,0
2018-02-09T16:43:39.486Z,0
2018-02-09T16:44:49.652Z,0
2018-02-09T16:45:59.551Z,0